Crew | Aerofun Virtual



 METAR AND TAF INFORMATION
METAR FOR EFKT
ADDS - METARS form results

(1531 UTC 24 May 2019)
Data provider http://aviationweather.gov/metar/data/
 
METAR text: EFKT 241520Z 11005KT 080V150 CAVOK 10/M04 Q1009
Conditions at: EFKT (KITTILA , FI) observed 1520 UTC 24 May 2019
Temperature: 10.0°C (50°F)
Dewpoint: -4.0°C (25°F) [RH = 37%]
Pressure (altimeter): 29.79 inches Hg (1009.0 mb)
Winds: from the ESE (110 degrees) at 6 MPH (5 knots; 2.6 m/s)
Visibility: 6 or more miles (10+ km)
Ceiling: ceiling and visibility are OK
Clouds: unknown
Weather: no significant weather observed at this time

METAR text: EFKT 241450Z AUTO 13005KT 100V170 CAVOK 10/M04 Q1009
Conditions at: EFKT (KITTILA , FI) observed 1450 UTC 24 May 2019
Temperature: 10.0°C (50°F)
Dewpoint: -4.0°C (25°F) [RH = 37%]
Pressure (altimeter): 29.79 inches Hg (1009.0 mb)
Winds: from the SE (130 degrees) at 6 MPH (5 knots; 2.6 m/s)
Visibility: 6 or more miles (10+ km)
Ceiling: ceiling and visibility are OK
Clouds: unknown
Weather: no significant weather observed at this time

Forecast for: EFKT (KITTILA , FI)
Text: TAF EFKT 241435Z 2415/2417 15006KT CAVOK
Forecast period: 1500 to 1700 UTC 24 May 2019
Forecast type: FROM: standard forecast or significant change
Winds: from the SSE (150 degrees) at 7 MPH (6 knots; 3.1 m/s)
Visibility: 6 or more miles 10+ km)
Ceiling: unknown
Clouds: missing
Weather: NSW  (no significant weather)

 AIRPORT MAP

 RUNWAY INFORMATION
Runway 16 Runway length 8202 ft Runway width 148 ft
Runway elevation 632 ft Runway displaced threshold 0 ft Runway heading 166
Runway 34 Runway length 8202 ft Runway width 148 ft
Runway elevation 644 ft Runway displaced threshold 0 ft Runway heading 346

 AIRPORT FREQUENCIES
Type AFIS Name AFIS Frequency 118.95 MHZ
Type ATIS Name ATIS Frequency 133.85 MHZ

 AIRPORT NEAR NAVIGATION AIDS
Type NDB Name Kittila Frequency 328 KHZ